sensor_id;sensor_type;location;lat;lon;timestamp;P1;durP1;ratioP1;P2;durP2;ratioP2
74108;SDS011;62466;47.566;7.786;2023-05-24T00:00:55;13.93;;;9.57;;
74108;SDS011;62466;47.566;7.786;2023-05-24T00:03:21;14.85;;;9.88;;
74108;SDS011;62466;47.566;7.786;2023-05-24T00:05:46;14.45;;;10.00;;
74108;SDS011;62466;47.566;7.786;2023-05-24T00:08:12;15.13;;;10.25;;
74108;SDS011;62466;47.566;7.786;2023-05-24T00:10:40;12.93;;;8.98;;
74108;SDS011;62466;47.566;7.786;2023-05-24T00:13:06;16.48;;;9.82;;
74108;SDS011;62466;47.566;7.786;2023-05-24T00:15:31;14.23;;;10.00;;
74108;SDS011;62466;47.566;7.786;2023-05-24T00:17:57;15.43;;;9.63;;
74108;SDS011;62466;47.566;7.786;2023-05-24T00:20:22;15.48;;;10.00;;
74108;SDS011;62466;47.566;7.786;2023-05-24T00:22:48;15.82;;;9.63;;
74108;SDS011;62466;47.566;7.786;2023-05-24T00:25:14;18.17;;;10.38;;
74108;SDS011;62466;47.566;7.786;2023-05-24T00:27:39;18.25;;;10.10;;
74108;SDS011;62466;47.566;7.786;2023-05-24T00:30:05;16.35;;;10.73;;
74108;SDS011;62466;47.566;7.786;2023-05-24T00:32:31;18.52;;;11.45;;
74108;SDS011;62466;47.566;7.786;2023-05-24T00:34:57;17.58;;;11.20;;
74108;SDS011;62466;47.566;7.786;2023-05-24T00:37:24;17.85;;;11.00;;
74108;SDS011;62466;47.566;7.786;2023-05-24T00:39:50;17.88;;;10.73;;
74108;SDS011;62466;47.566;7.786;2023-05-24T00:42:15;19.27;;;10.77;;
74108;SDS011;62466;47.566;7.786;2023-05-24T00:44:41;18.58;;;11.75;;
74108;SDS011;62466;47.566;7.786;2023-05-24T00:47:06;21.20;;;12.48;;
74108;SDS011;62466;47.566;7.786;2023-05-24T00:49:33;20.20;;;12.35;;
74108;SDS011;62466;47.566;7.786;2023-05-24T00:51:59;20.50;;;12.32;;
74108;SDS011;62466;47.566;7.786;2023-05-24T00:54:24;21.08;;;13.80;;
74108;SDS011;62466;47.566;7.786;2023-05-24T00:56:51;20.13;;;12.60;;
74108;SDS011;62466;47.566;7.786;2023-05-24T00:59:17;18.20;;;12.23;;
74108;SDS011;62466;47.566;7.786;2023-05-24T01:01:42;20.10;;;11.70;;
74108;SDS011;62466;47.566;7.786;2023-05-24T01:04:12;21.42;;;12.35;;
74108;SDS011;62466;47.566;7.786;2023-05-24T01:06:41;21.52;;;11.80;;
74108;SDS011;62466;47.566;7.786;2023-05-24T01:09:17;21.15;;;11.90;;
74108;SDS011;62466;47.566;7.786;2023-05-24T01:18:09;20.23;;;11.88;;
74108;SDS011;62466;47.566;7.786;2023-05-24T01:20:28;20.02;;;11.57;;
74108;SDS011;62466;47.566;7.786;2023-05-24T01:23:04;18.88;;;10.85;;
74108;SDS011;62466;47.566;7.786;2023-05-24T01:28:10;21.30;;;12.55;;
74108;SDS011;62466;47.566;7.786;2023-05-24T01:30:36;21.50;;;11.70;;
74108;SDS011;62466;47.566;7.786;2023-05-24T01:33:03;18.48;;;11.07;;
74108;SDS011;62466;47.566;7.786;2023-05-24T01:35:28;16.98;;;10.88;;
74108;SDS011;62466;47.566;7.786;2023-05-24T01:37:53;19.00;;;11.73;;
74108;SDS011;62466;47.566;7.786;2023-05-24T01:40:19;16.48;;;11.18;;
74108;SDS011;62466;47.566;7.786;2023-05-24T01:42:48;17.30;;;10.75;;
74108;SDS011;62466;47.566;7.786;2023-05-24T01:50:57;19.42;;;10.10;;
74108;SDS011;62466;47.566;7.786;2023-05-24T01:53:23;14.88;;;9.20;;
74108;SDS011;62466;47.566;7.786;2023-05-24T01:55:54;17.40;;;9.63;;
74108;SDS011;62466;47.566;7.786;2023-05-24T01:58:21;14.85;;;9.68;;
74108;SDS011;62466;47.566;7.786;2023-05-24T02:00:47;16.63;;;9.85;;
74108;SDS011;62466;47.566;7.786;2023-05-24T02:03:13;16.90;;;9.32;;
74108;SDS011;62466;47.566;7.786;2023-05-24T02:05:39;16.45;;;9.23;;
74108;SDS011;62466;47.566;7.786;2023-05-24T02:08:05;14.68;;;8.38;;
74108;SDS011;62466;47.566;7.786;2023-05-24T02:10:30;11.48;;;7.75;;
74108;SDS011;62466;47.566;7.786;2023-05-24T02:12:56;14.73;;;7.95;;
74108;SDS011;62466;47.566;7.786;2023-05-24T02:15:23;14.25;;;8.50;;
74108;SDS011;62466;47.566;7.786;2023-05-24T02:17:50;15.55;;;8.57;;
74108;SDS011;62466;47.566;7.786;2023-05-24T02:20:19;13.93;;;8.02;;
74108;SDS011;62466;47.566;7.786;2023-05-24T02:22:46;11.82;;;8.02;;
74108;SDS011;62466;47.566;7.786;2023-05-24T02:25:12;13.88;;;8.57;;
74108;SDS011;62466;47.566;7.786;2023-05-24T02:27:38;13.55;;;8.25;;
74108;SDS011;62466;47.566;7.786;2023-05-24T02:30:04;11.93;;;8.25;;
74108;SDS011;62466;47.566;7.786;2023-05-24T02:32:31;13.65;;;7.55;;
74108;SDS011;62466;47.566;7.786;2023-05-24T02:34:57;14.57;;;9.02;;
74108;SDS011;62466;47.566;7.786;2023-05-24T02:37:29;13.15;;;8.25;;
74108;SDS011;62466;47.566;7.786;2023-05-24T02:39:54;14.40;;;8.27;;
74108;SDS011;62466;47.566;7.786;2023-05-24T02:42:20;15.50;;;8.63;;
74108;SDS011;62466;47.566;7.786;2023-05-24T02:44:45;13.40;;;7.97;;
74108;SDS011;62466;47.566;7.786;2023-05-24T02:47:17;12.57;;;7.47;;
74108;SDS011;62466;47.566;7.786;2023-05-24T02:49:43;14.60;;;7.22;;
74108;SDS011;62466;47.566;7.786;2023-05-24T02:52:08;12.55;;;8.13;;
74108;SDS011;62466;47.566;7.786;2023-05-24T02:54:34;12.63;;;7.68;;
74108;SDS011;62466;47.566;7.786;2023-05-24T02:57:02;12.38;;;6.88;;
74108;SDS011;62466;47.566;7.786;2023-05-24T02:59:31;11.35;;;7.55;;
74108;SDS011;62466;47.566;7.786;2023-05-24T03:01:57;11.30;;;7.82;;
74108;SDS011;62466;47.566;7.786;2023-05-24T03:04:24;12.65;;;7.80;;
74108;SDS011;62466;47.566;7.786;2023-05-24T03:06:50;13.05;;;8.20;;
74108;SDS011;62466;47.566;7.786;2023-05-24T03:09:15;14.00;;;8.27;;
74108;SDS011;62466;47.566;7.786;2023-05-24T03:11:41;11.20;;;7.82;;
74108;SDS011;62466;47.566;7.786;2023-05-24T03:14:07;15.45;;;7.90;;
74108;SDS011;62466;47.566;7.786;2023-05-24T03:16:36;8.70;;;6.80;;
74108;SDS011;62466;47.566;7.786;2023-05-24T03:19:02;11.63;;;7.22;;
74108;SDS011;62466;47.566;7.786;2023-05-24T03:21:29;12.38;;;7.63;;
74108;SDS011;62466;47.566;7.786;2023-05-24T03:23:56;10.48;;;6.82;;
74108;SDS011;62466;47.566;7.786;2023-05-24T03:26:22;10.90;;;7.13;;
74108;SDS011;62466;47.566;7.786;2023-05-24T03:28:47;12.20;;;7.07;;
74108;SDS011;62466;47.566;7.786;2023-05-24T03:31:16;11.48;;;7.30;;
74108;SDS011;62466;47.566;7.786;2023-05-24T03:33:45;11.25;;;7.20;;
74108;SDS011;62466;47.566;7.786;2023-05-24T03:36:11;10.68;;;7.20;;
74108;SDS011;62466;47.566;7.786;2023-05-24T03:38:37;15.63;;;7.68;;
74108;SDS011;62466;47.566;7.786;2023-05-24T03:41:02;11.18;;;7.80;;
74108;SDS011;62466;47.566;7.786;2023-05-24T03:43:28;9.98;;;7.45;;
74108;SDS011;62466;47.566;7.786;2023-05-24T03:45:56;12.80;;;7.43;;
74108;SDS011;62466;47.566;7.786;2023-05-24T03:48:21;8.77;;;6.47;;
74108;SDS011;62466;47.566;7.786;2023-05-24T03:50:49;11.73;;;6.70;;
74108;SDS011;62466;47.566;7.786;2023-05-24T03:53:15;10.63;;;7.40;;
74108;SDS011;62466;47.566;7.786;2023-05-24T03:55:41;11.45;;;7.43;;
74108;SDS011;62466;47.566;7.786;2023-05-24T03:58:07;10.10;;;6.95;;
74108;SDS011;62466;47.566;7.786;2023-05-24T04:00:32;9.43;;;6.55;;
74108;SDS011;62466;47.566;7.786;2023-05-24T04:02:58;10.52;;;6.88;;
74108;SDS011;62466;47.566;7.786;2023-05-24T04:05:27;10.90;;;7.28;;
74108;SDS011;62466;47.566;7.786;2023-05-24T04:07:54;10.57;;;6.50;;
74108;SDS011;62466;47.566;7.786;2023-05-24T04:10:20;11.48;;;7.25;;
74108;SDS011;62466;47.566;7.786;2023-05-24T04:12:47;14.10;;;6.95;;
74108;SDS011;62466;47.566;7.786;2023-05-24T04:15:12;13.02;;;7.70;;
74108;SDS011;62466;47.566;7.786;2023-05-24T04:17:41;9.80;;;6.78;;
74108;SDS011;62466;47.566;7.786;2023-05-24T04:20:08;10.90;;;7.53;;
74108;SDS011;62466;47.566;7.786;2023-05-24T04:22:34;12.00;;;7.38;;
74108;SDS011;62466;47.566;7.786;2023-05-24T04:25:03;11.95;;;7.43;;
74108;SDS011;62466;47.566;7.786;2023-05-24T04:27:30;9.20;;;6.38;;
74108;SDS011;62466;47.566;7.786;2023-05-24T04:29:56;12.55;;;7.43;;
74108;SDS011;62466;47.566;7.786;2023-05-24T04:32:22;10.45;;;6.43;;
74108;SDS011;62466;47.566;7.786;2023-05-24T04:34:48;10.90;;;7.13;;
74108;SDS011;62466;47.566;7.786;2023-05-24T04:37:14;9.82;;;6.38;;
74108;SDS011;62466;47.566;7.786;2023-05-24T04:39:42;10.57;;;6.93;;
74108;SDS011;62466;47.566;7.786;2023-05-24T04:42:09;10.45;;;7.03;;
74108;SDS011;62466;47.566;7.786;2023-05-24T04:44:36;11.73;;;7.30;;
74108;SDS011;62466;47.566;7.786;2023-05-24T04:47:02;9.93;;;6.68;;
74108;SDS011;62466;47.566;7.786;2023-05-24T04:49:28;10.82;;;7.07;;
74108;SDS011;62466;47.566;7.786;2023-05-24T04:51:54;9.63;;;6.97;;
74108;SDS011;62466;47.566;7.786;2023-05-24T04:54:20;11.07;;;7.07;;
74108;SDS011;62466;47.566;7.786;2023-05-24T04:57:05;11.00;;;6.95;;
74108;SDS011;62466;47.566;7.786;2023-05-24T04:59:42;8.18;;;6.63;;
74108;SDS011;62466;47.566;7.786;2023-05-24T05:02:08;9.48;;;5.88;;
74108;SDS011;62466;47.566;7.786;2023-05-24T05:04:34;10.23;;;6.07;;
74108;SDS011;62466;47.566;7.786;2023-05-24T05:07:00;8.15;;;5.80;;
74108;SDS011;62466;47.566;7.786;2023-05-24T05:09:25;13.32;;;6.10;;
74108;SDS011;62466;47.566;7.786;2023-05-24T05:11:52;10.25;;;6.38;;
74108;SDS011;62466;47.566;7.786;2023-05-24T05:14:18;10.05;;;6.22;;
74108;SDS011;62466;47.566;7.786;2023-05-24T05:16:43;9.63;;;6.15;;
74108;SDS011;62466;47.566;7.786;2023-05-24T05:19:10;9.73;;;6.90;;
74108;SDS011;62466;47.566;7.786;2023-05-24T05:21:38;8.32;;;6.30;;
74108;SDS011;62466;47.566;7.786;2023-05-24T05:24:04;10.45;;;5.75;;
74108;SDS011;62466;47.566;7.786;2023-05-24T05:26:30;11.60;;;6.35;;
74108;SDS011;62466;47.566;7.786;2023-05-24T05:28:56;10.88;;;5.68;;
74108;SDS011;62466;47.566;7.786;2023-05-24T05:31:22;9.30;;;5.75;;
74108;SDS011;62466;47.566;7.786;2023-05-24T05:33:47;7.75;;;5.75;;
74108;SDS011;62466;47.566;7.786;2023-05-24T05:36:13;10.77;;;6.18;;
74108;SDS011;62466;47.566;7.786;2023-05-24T05:38:39;10.65;;;6.05;;
74108;SDS011;62466;47.566;7.786;2023-05-24T05:41:04;12.13;;;5.78;;
74108;SDS011;62466;47.566;7.786;2023-05-24T05:43:31;7.70;;;5.30;;
74108;SDS011;62466;47.566;7.786;2023-05-24T05:45:56;8.80;;;6.13;;
74108;SDS011;62466;47.566;7.786;2023-05-24T05:48:22;8.98;;;5.18;;
74108;SDS011;62466;47.566;7.786;2023-05-24T05:50:47;12.02;;;5.93;;
74108;SDS011;62466;47.566;7.786;2023-05-24T05:53:14;12.23;;;5.85;;
74108;SDS011;62466;47.566;7.786;2023-05-24T05:55:40;9.18;;;5.45;;
74108;SDS011;62466;47.566;7.786;2023-05-24T05:58:05;9.05;;;5.13;;
74108;SDS011;62466;47.566;7.786;2023-05-24T06:00:31;8.32;;;5.65;;
74108;SDS011;62466;47.566;7.786;2023-05-24T06:02:56;11.75;;;5.95;;
74108;SDS011;62466;47.566;7.786;2023-05-24T06:05:22;9.88;;;5.93;;
74108;SDS011;62466;47.566;7.786;2023-05-24T06:07:48;7.35;;;5.43;;
74108;SDS011;62466;47.566;7.786;2023-05-24T06:10:13;7.78;;;6.07;;
74108;SDS011;62466;47.566;7.786;2023-05-24T06:12:39;14.40;;;5.68;;
74108;SDS011;62466;47.566;7.786;2023-05-24T06:15:05;9.45;;;5.53;;
74108;SDS011;62466;47.566;7.786;2023-05-24T06:17:32;11.07;;;6.00;;
74108;SDS011;62466;47.566;7.786;2023-05-24T06:19:58;13.57;;;6.20;;
74108;SDS011;62466;47.566;7.786;2023-05-24T06:22:24;8.85;;;5.57;;
74108;SDS011;62466;47.566;7.786;2023-05-24T06:24:52;8.50;;;5.32;;
74108;SDS011;62466;47.566;7.786;2023-05-24T06:27:17;7.68;;;5.63;;
74108;SDS011;62466;47.566;7.786;2023-05-24T06:29:43;10.40;;;5.53;;
74108;SDS011;62466;47.566;7.786;2023-05-24T06:32:08;8.75;;;5.45;;
74108;SDS011;62466;47.566;7.786;2023-05-24T06:34:34;7.60;;;5.38;;
74108;SDS011;62466;47.566;7.786;2023-05-24T06:37:00;6.97;;;4.82;;
74108;SDS011;62466;47.566;7.786;2023-05-24T06:39:26;8.23;;;5.25;;
74108;SDS011;62466;47.566;7.786;2023-05-24T06:41:52;9.48;;;5.72;;
74108;SDS011;62466;47.566;7.786;2023-05-24T06:44:22;8.32;;;5.65;;
74108;SDS011;62466;47.566;7.786;2023-05-24T06:46:54;8.43;;;5.40;;
74108;SDS011;62466;47.566;7.786;2023-05-24T06:49:20;7.20;;;4.50;;
74108;SDS011;62466;47.566;7.786;2023-05-24T06:51:46;8.10;;;5.35;;
74108;SDS011;62466;47.566;7.786;2023-05-24T06:54:11;7.95;;;5.03;;
74108;SDS011;62466;47.566;7.786;2023-05-24T06:56:37;8.05;;;5.07;;
74108;SDS011;62466;47.566;7.786;2023-05-24T06:59:03;10.10;;;5.28;;
74108;SDS011;62466;47.566;7.786;2023-05-24T07:01:28;12.57;;;5.72;;
74108;SDS011;62466;47.566;7.786;2023-05-24T07:03:54;11.30;;;5.53;;
74108;SDS011;62466;47.566;7.786;2023-05-24T07:06:19;8.27;;;5.20;;
74108;SDS011;62466;47.566;7.786;2023-05-24T07:08:45;9.00;;;4.72;;
74108;SDS011;62466;47.566;7.786;2023-05-24T07:11:11;8.50;;;4.72;;
74108;SDS011;62466;47.566;7.786;2023-05-24T07:13:37;9.52;;;4.80;;
74108;SDS011;62466;47.566;7.786;2023-05-24T07:16:02;6.88;;;4.70;;
74108;SDS011;62466;47.566;7.786;2023-05-24T07:18:29;7.30;;;4.38;;
74108;SDS011;62466;47.566;7.786;2023-05-24T07:20:54;8.43;;;4.97;;
74108;SDS011;62466;47.566;7.786;2023-05-24T07:23:19;8.85;;;4.80;;
74108;SDS011;62466;47.566;7.786;2023-05-24T07:25:45;6.18;;;4.78;;
74108;SDS011;62466;47.566;7.786;2023-05-24T07:28:10;12.20;;;5.32;;
74108;SDS011;62466;47.566;7.786;2023-05-24T07:30:38;7.68;;;4.47;;
74108;SDS011;62466;47.566;7.786;2023-05-24T07:33:03;11.82;;;5.07;;
74108;SDS011;62466;47.566;7.786;2023-05-24T07:35:29;6.68;;;4.80;;
74108;SDS011;62466;47.566;7.786;2023-05-24T07:37:55;12.18;;;5.57;;
74108;SDS011;62466;47.566;7.786;2023-05-24T07:40:20;9.30;;;4.55;;
74108;SDS011;62466;47.566;7.786;2023-05-24T07:42:49;9.75;;;4.68;;
74108;SDS011;62466;47.566;7.786;2023-05-24T07:45:15;8.15;;;5.53;;
74108;SDS011;62466;47.566;7.786;2023-05-24T07:47:40;9.20;;;4.80;;
74108;SDS011;62466;47.566;7.786;2023-05-24T07:50:06;8.73;;;4.95;;
74108;SDS011;62466;47.566;7.786;2023-05-24T07:52:31;9.00;;;4.72;;
74108;SDS011;62466;47.566;7.786;2023-05-24T07:54:57;9.55;;;5.28;;
74108;SDS011;62466;47.566;7.786;2023-05-24T07:57:22;9.32;;;5.20;;
74108;SDS011;62466;47.566;7.786;2023-05-24T07:59:48;10.10;;;5.82;;
74108;SDS011;62466;47.566;7.786;2023-05-24T08:02:14;10.05;;;5.30;;
74108;SDS011;62466;47.566;7.786;2023-05-24T08:04:43;7.05;;;5.20;;
74108;SDS011;62466;47.566;7.786;2023-05-24T08:07:12;9.27;;;4.95;;
74108;SDS011;62466;47.566;7.786;2023-05-24T08:09:38;7.55;;;4.88;;
74108;SDS011;62466;47.566;7.786;2023-05-24T08:12:04;11.02;;;5.55;;
74108;SDS011;62466;47.566;7.786;2023-05-24T08:14:30;6.38;;;4.88;;
74108;SDS011;62466;47.566;7.786;2023-05-24T08:16:56;9.13;;;5.10;;
74108;SDS011;62466;47.566;7.786;2023-05-24T08:19:21;7.97;;;4.75;;
74108;SDS011;62466;47.566;7.786;2023-05-24T08:21:47;5.63;;;4.15;;
74108;SDS011;62466;47.566;7.786;2023-05-24T08:24:13;7.95;;;5.07;;
74108;SDS011;62466;47.566;7.786;2023-05-24T08:26:39;6.72;;;5.15;;
74108;SDS011;62466;47.566;7.786;2023-05-24T08:29:04;9.00;;;4.90;;
74108;SDS011;62466;47.566;7.786;2023-05-24T08:31:30;8.68;;;5.18;;
74108;SDS011;62466;47.566;7.786;2023-05-24T08:33:57;8.75;;;5.60;;
74108;SDS011;62466;47.566;7.786;2023-05-24T08:36:23;7.60;;;4.93;;
74108;SDS011;62466;47.566;7.786;2023-05-24T08:38:49;8.55;;;4.70;;
74108;SDS011;62466;47.566;7.786;2023-05-24T08:41:14;9.05;;;5.05;;
74108;SDS011;62466;47.566;7.786;2023-05-24T08:43:40;7.93;;;5.28;;
74108;SDS011;62466;47.566;7.786;2023-05-24T08:46:06;10.85;;;5.40;;
74108;SDS011;62466;47.566;7.786;2023-05-24T08:48:33;8.30;;;4.72;;
74108;SDS011;62466;47.566;7.786;2023-05-24T08:50:59;10.23;;;5.20;;
74108;SDS011;62466;47.566;7.786;2023-05-24T08:53:25;9.23;;;4.95;;
74108;SDS011;62466;47.566;7.786;2023-05-24T08:55:51;7.03;;;5.32;;
74108;SDS011;62466;47.566;7.786;2023-05-24T08:58:21;16.95;;;6.20;;
74108;SDS011;62466;47.566;7.786;2023-05-24T09:00:47;8.85;;;5.03;;
74108;SDS011;62466;47.566;7.786;2023-05-24T09:03:13;7.18;;;5.00;;
74108;SDS011;62466;47.566;7.786;2023-05-24T09:05:41;10.23;;;5.93;;
74108;SDS011;62466;47.566;7.786;2023-05-24T09:08:08;14.30;;;7.13;;
74108;SDS011;62466;47.566;7.786;2023-05-24T09:10:40;8.98;;;5.88;;
74108;SDS011;62466;47.566;7.786;2023-05-24T09:13:05;11.68;;;5.15;;
74108;SDS011;62466;47.566;7.786;2023-05-24T09:15:31;10.38;;;5.40;;
74108;SDS011;62466;47.566;7.786;2023-05-24T09:17:58;9.68;;;5.40;;
74108;SDS011;62466;47.566;7.786;2023-05-24T09:20:24;9.10;;;5.18;;
74108;SDS011;62466;47.566;7.786;2023-05-24T09:23:03;9.90;;;5.60;;
74108;SDS011;62466;47.566;7.786;2023-05-24T09:25:31;10.05;;;5.43;;
74108;SDS011;62466;47.566;7.786;2023-05-24T09:28:04;12.50;;;5.32;;
74108;SDS011;62466;47.566;7.786;2023-05-24T09:30:33;7.85;;;6.00;;
74108;SDS011;62466;47.566;7.786;2023-05-24T09:33:03;7.97;;;5.43;;
74108;SDS011;62466;47.566;7.786;2023-05-24T09:35:35;10.27;;;7.43;;
74108;SDS011;62466;47.566;7.786;2023-05-24T09:38:27;9.43;;;5.40;;
74108;SDS011;62466;47.566;7.786;2023-05-24T09:41:01;7.28;;;5.38;;
74108;SDS011;62466;47.566;7.786;2023-05-24T09:43:29;9.60;;;5.13;;
74108;SDS011;62466;47.566;7.786;2023-05-24T09:45:56;9.25;;;5.30;;
74108;SDS011;62466;47.566;7.786;2023-05-24T09:48:22;9.45;;;4.80;;
74108;SDS011;62466;47.566;7.786;2023-05-24T09:51:06;11.05;;;5.25;;
74108;SDS011;62466;47.566;7.786;2023-05-24T09:53:36;9.35;;;5.13;;
74108;SDS011;62466;47.566;7.786;2023-05-24T09:56:03;8.98;;;5.30;;
74108;SDS011;62466;47.566;7.786;2023-05-24T09:58:30;11.43;;;5.47;;
74108;SDS011;62466;47.566;7.786;2023-05-24T10:01:02;8.23;;;5.50;;
74108;SDS011;62466;47.566;7.786;2023-05-24T10:03:33;7.50;;;5.78;;
74108;SDS011;62466;47.566;7.786;2023-05-24T10:05:59;8.90;;;5.25;;
74108;SDS011;62466;47.566;7.786;2023-05-24T10:08:26;15.05;;;6.65;;
74108;SDS011;62466;47.566;7.786;2023-05-24T10:10:52;9.45;;;5.50;;
74108;SDS011;62466;47.566;7.786;2023-05-24T10:13:23;8.95;;;5.80;;
74108;SDS011;62466;47.566;7.786;2023-05-24T10:15:49;10.45;;;5.72;;
74108;SDS011;62466;47.566;7.786;2023-05-24T10:18:18;9.80;;;5.28;;
74108;SDS011;62466;47.566;7.786;2023-05-24T10:20:47;8.90;;;5.35;;
74108;SDS011;62466;47.566;7.786;2023-05-24T10:23:14;9.82;;;5.68;;
74108;SDS011;62466;47.566;7.786;2023-05-24T10:25:45;9.00;;;5.28;;
74108;SDS011;62466;47.566;7.786;2023-05-24T10:28:15;7.68;;;5.82;;
74108;SDS011;62466;47.566;7.786;2023-05-24T10:33:20;9.27;;;6.05;;
74108;SDS011;62466;47.566;7.786;2023-05-24T10:35:46;7.78;;;5.75;;
74108;SDS011;62466;47.566;7.786;2023-05-24T10:38:12;11.32;;;7.13;;
74108;SDS011;62466;47.566;7.786;2023-05-24T10:40:41;10.07;;;6.65;;
74108;SDS011;62466;47.566;7.786;2023-05-24T10:43:07;10.00;;;6.43;;
74108;SDS011;62466;47.566;7.786;2023-05-24T10:45:40;10.93;;;6.75;;
74108;SDS011;62466;47.566;7.786;2023-05-24T10:50:38;19.08;;;8.02;;
74108;SDS011;62466;47.566;7.786;2023-05-24T10:58:21;11.63;;;6.20;;
74108;SDS011;62466;47.566;7.786;2023-05-24T11:00:51;12.43;;;6.90;;
74108;SDS011;62466;47.566;7.786;2023-05-24T11:03:17;12.35;;;6.78;;
74108;SDS011;62466;47.566;7.786;2023-05-24T11:05:49;13.15;;;6.75;;
74108;SDS011;62466;47.566;7.786;2023-05-24T11:08:21;16.10;;;6.60;;
74108;SDS011;62466;47.566;7.786;2023-05-24T11:11:06;15.00;;;6.65;;
74108;SDS011;62466;47.566;7.786;2023-05-24T11:13:38;13.93;;;7.22;;
74108;SDS011;62466;47.566;7.786;2023-05-24T11:16:04;13.63;;;7.68;;
74108;SDS011;62466;47.566;7.786;2023-05-24T11:18:30;12.27;;;7.25;;
74108;SDS011;62466;47.566;7.786;2023-05-24T11:20:58;14.93;;;6.70;;
74108;SDS011;62466;47.566;7.786;2023-05-24T11:23:24;13.52;;;7.38;;
74108;SDS011;62466;47.566;7.786;2023-05-24T11:25:49;14.35;;;7.35;;
74108;SDS011;62466;47.566;7.786;2023-05-24T11:28:15;11.20;;;6.72;;
74108;SDS011;62466;47.566;7.786;2023-05-24T11:30:45;12.35;;;6.30;;
74108;SDS011;62466;47.566;7.786;2023-05-24T11:33:18;10.50;;;6.30;;
74108;SDS011;62466;47.566;7.786;2023-05-24T11:35:45;12.95;;;5.80;;
74108;SDS011;62466;47.566;7.786;2023-05-24T11:38:11;11.27;;;6.53;;
74108;SDS011;62466;47.566;7.786;2023-05-24T11:40:44;11.70;;;6.05;;
74108;SDS011;62466;47.566;7.786;2023-05-24T11:43:11;12.10;;;5.80;;
74108;SDS011;62466;47.566;7.786;2023-05-24T11:45:44;10.60;;;6.47;;
74108;SDS011;62466;47.566;7.786;2023-05-24T11:48:11;10.00;;;5.57;;
74108;SDS011;62466;47.566;7.786;2023-05-24T11:50:40;11.20;;;6.25;;
74108;SDS011;62466;47.566;7.786;2023-05-24T11:53:10;12.95;;;5.05;;
74108;SDS011;62466;47.566;7.786;2023-05-24T11:55:36;12.55;;;5.72;;
74108;SDS011;62466;47.566;7.786;2023-05-24T11:58:05;8.98;;;5.18;;
74108;SDS011;62466;47.566;7.786;2023-05-24T12:00:31;12.50;;;5.20;;
74108;SDS011;62466;47.566;7.786;2023-05-24T12:02:57;11.23;;;5.82;;
74108;SDS011;62466;47.566;7.786;2023-05-24T12:05:29;8.98;;;6.15;;
74108;SDS011;62466;47.566;7.786;2023-05-24T12:08:00;9.40;;;5.82;;
74108;SDS011;62466;47.566;7.786;2023-05-24T12:10:36;12.60;;;5.43;;
74108;SDS011;62466;47.566;7.786;2023-05-24T12:13:02;8.45;;;5.28;;
74108;SDS011;62466;47.566;7.786;2023-05-24T12:15:28;11.10;;;5.88;;
74108;SDS011;62466;47.566;7.786;2023-05-24T12:17:55;14.95;;;5.38;;
74108;SDS011;62466;47.566;7.786;2023-05-24T12:20:21;9.15;;;5.05;;
74108;SDS011;62466;47.566;7.786;2023-05-24T12:22:47;11.00;;;5.22;;
74108;SDS011;62466;47.566;7.786;2023-05-24T12:25:20;12.75;;;6.10;;
74108;SDS011;62466;47.566;7.786;2023-05-24T12:27:51;12.65;;;5.70;;
74108;SDS011;62466;47.566;7.786;2023-05-24T12:30:20;10.05;;;5.88;;
74108;SDS011;62466;47.566;7.786;2023-05-24T12:32:47;9.05;;;5.63;;
74108;SDS011;62466;47.566;7.786;2023-05-24T12:35:13;14.77;;;6.57;;
74108;SDS011;62466;47.566;7.786;2023-05-24T12:37:39;9.27;;;5.88;;
74108;SDS011;62466;47.566;7.786;2023-05-24T12:40:17;13.45;;;6.45;;
74108;SDS011;62466;47.566;7.786;2023-05-24T12:42:53;11.63;;;6.53;;
74108;SDS011;62466;47.566;7.786;2023-05-24T12:45:23;12.00;;;5.90;;
74108;SDS011;62466;47.566;7.786;2023-05-24T12:47:53;9.90;;;6.57;;
74108;SDS011;62466;47.566;7.786;2023-05-24T12:50:20;11.98;;;5.93;;
74108;SDS011;62466;47.566;7.786;2023-05-24T12:52:47;13.43;;;6.55;;
74108;SDS011;62466;47.566;7.786;2023-05-24T12:55:17;13.02;;;6.43;;
74108;SDS011;62466;47.566;7.786;2023-05-24T12:57:43;18.05;;;6.50;;
74108;SDS011;62466;47.566;7.786;2023-05-24T13:00:16;15.35;;;7.63;;
74108;SDS011;62466;47.566;7.786;2023-05-24T13:02:42;12.40;;;6.90;;
74108;SDS011;62466;47.566;7.786;2023-05-24T13:05:08;14.93;;;7.15;;
74108;SDS011;62466;47.566;7.786;2023-05-24T13:07:34;14.25;;;7.80;;
74108;SDS011;62466;47.566;7.786;2023-05-24T13:10:00;16.95;;;7.75;;
74108;SDS011;62466;47.566;7.786;2023-05-24T13:12:26;16.23;;;7.57;;
74108;SDS011;62466;47.566;7.786;2023-05-24T13:14:51;13.88;;;8.25;;
74108;SDS011;62466;47.566;7.786;2023-05-24T13:17:17;16.83;;;8.07;;
74108;SDS011;62466;47.566;7.786;2023-05-24T13:19:43;12.73;;;7.68;;
74108;SDS011;62466;47.566;7.786;2023-05-24T13:22:12;16.27;;;8.18;;
74108;SDS011;62466;47.566;7.786;2023-05-24T13:24:38;19.10;;;8.23;;
74108;SDS011;62466;47.566;7.786;2023-05-24T13:27:04;13.60;;;8.00;;
74108;SDS011;62466;47.566;7.786;2023-05-24T13:29:30;18.13;;;8.38;;
74108;SDS011;62466;47.566;7.786;2023-05-24T13:31:56;18.02;;;8.13;;
74108;SDS011;62466;47.566;7.786;2023-05-24T13:34:21;11.90;;;7.45;;
74108;SDS011;62466;47.566;7.786;2023-05-24T13:36:53;14.70;;;8.35;;
74108;SDS011;62466;47.566;7.786;2023-05-24T13:39:21;22.38;;;9.35;;
74108;SDS011;62466;47.566;7.786;2023-05-24T13:41:47;14.00;;;8.85;;
74108;SDS011;62466;47.566;7.786;2023-05-24T13:44:13;15.07;;;8.27;;
74108;SDS011;62466;47.566;7.786;2023-05-24T13:46:42;14.02;;;8.73;;
74108;SDS011;62466;47.566;7.786;2023-05-24T13:49:08;13.43;;;7.82;;
74108;SDS011;62466;47.566;7.786;2023-05-24T13:51:35;19.00;;;8.70;;
74108;SDS011;62466;47.566;7.786;2023-05-24T13:54:01;17.27;;;8.10;;
74108;SDS011;62466;47.566;7.786;2023-05-24T13:56:27;16.92;;;8.68;;
74108;SDS011;62466;47.566;7.786;2023-05-24T13:58:57;12.50;;;7.70;;
74108;SDS011;62466;47.566;7.786;2023-05-24T14:01:23;13.73;;;7.97;;
74108;SDS011;62466;47.566;7.786;2023-05-24T14:03:49;17.33;;;9.20;;
74108;SDS011;62466;47.566;7.786;2023-05-24T14:06:16;13.40;;;7.38;;
74108;SDS011;62466;47.566;7.786;2023-05-24T14:08:41;15.00;;;7.32;;
74108;SDS011;62466;47.566;7.786;2023-05-24T14:11:07;12.35;;;8.15;;
74108;SDS011;62466;47.566;7.786;2023-05-24T14:13:33;12.35;;;7.72;;
74108;SDS011;62466;47.566;7.786;2023-05-24T14:15:58;14.18;;;7.78;;
74108;SDS011;62466;47.566;7.786;2023-05-24T14:18:23;13.60;;;7.82;;
74108;SDS011;62466;47.566;7.786;2023-05-24T14:20:49;15.82;;;7.70;;
74108;SDS011;62466;47.566;7.786;2023-05-24T14:23:14;14.05;;;8.50;;
74108;SDS011;62466;47.566;7.786;2023-05-24T14:25:40;19.10;;;9.85;;
74108;SDS011;62466;47.566;7.786;2023-05-24T14:28:06;15.15;;;7.60;;
74108;SDS011;62466;47.566;7.786;2023-05-24T14:30:32;19.10;;;9.30;;
74108;SDS011;62466;47.566;7.786;2023-05-24T14:32:58;12.93;;;7.78;;
74108;SDS011;62466;47.566;7.786;2023-05-24T14:35:25;12.85;;;7.70;;
74108;SDS011;62466;47.566;7.786;2023-05-24T14:37:50;17.60;;;8.77;;
74108;SDS011;62466;47.566;7.786;2023-05-24T14:40:17;12.55;;;7.82;;
74108;SDS011;62466;47.566;7.786;2023-05-24T14:42:43;13.38;;;7.05;;
74108;SDS011;62466;47.566;7.786;2023-05-24T14:45:09;17.45;;;8.15;;
74108;SDS011;62466;47.566;7.786;2023-05-24T14:47:35;13.88;;;8.35;;
74108;SDS011;62466;47.566;7.786;2023-05-24T14:50:00;11.43;;;7.72;;
74108;SDS011;62466;47.566;7.786;2023-05-24T14:52:26;17.05;;;8.18;;
74108;SDS011;62466;47.566;7.786;2023-05-24T14:54:52;16.75;;;9.05;;
74108;SDS011;62466;47.566;7.786;2023-05-24T14:57:18;16.67;;;9.05;;
74108;SDS011;62466;47.566;7.786;2023-05-24T14:59:43;18.95;;;8.63;;
74108;SDS011;62466;47.566;7.786;2023-05-24T15:02:10;17.23;;;8.27;;